Notice: Undefined index: station in /home3/dimtiris/public_html/webApp/metar/index.php on line 4

Metar

Weather conditions for all airports of the world. Just type the ICAO code of an airport.

LGAV 051850Z 28002KT CAVOK 20/08 Q1015 RMK FEW180 NOSIG

STATION LGAV
OBSERVED Tue May 5, 12:50 MDT
NOW Tue May 5, 13:22 MDT
AGE 32 min ago
WIND W at 2 mph
VISIBILITY greater than 7 miles
CONDITIONS
CLOUDS clear skies
TEMP 68°F (20°C)
DEWPT 46°F (8°C)
HUMIDITY 46%
BAROMETER 1015 hPa (29.97 in Hg)

Get weather info from other station:

Some ICAO codes to try: